Balatonboglar, Hungary
Current Conditions -  °F | °C
As of 5:45 PM on Sunday 25 Jan 2015 (Local Time) from LHSM Reporting Station
Light Snow Light Snow  
Wind Chill: 25°   Ceiling: 3300
Heat Index: 36°   Visibility: 6mi
Dew Point: 32°   Wind: 20mph
Humidity: 87%   Direction: 340°NNW
Pressure: 30.12"   Gusts: NA
Location:  46.77°N, 17.67°E
Report Text: LHSM 251545Z 34017KT 9999 -RASN SCT010 OVC033 02/M00 Q1020
Loading
Personal Weather Stations






























Interactive Weather Map New forecast layout! Learn more

10-Day Weather Forecast

Advertisements
Track Severe Weather on mobile